This is the latest recevied weather packets stored in our database for station/object KC9DRE. If no packets are shown the sender has not sent any weather packets the latest 10 day(s).
| Time | Temp. | Humidity | Pressure | Rain* | Wind** | Luminosity | Snow |
|---|---|---|---|---|---|---|---|
| 1787783021 | 31.67° C | 55% | 1014.2 hPa | 0 mm | - | 175 W/m² | - |
| 1787782720 | 31.67° C | 53% | 1014.3 hPa | 0 mm | - | 200 W/m² | - |
| 1787782416 | 31.67° C | 54% | 1014.1 hPa | 0 mm | - | 219 W/m² | - |
| 1787782111 | 31.67° C | 55% | 1014.2 hPa | 0 mm | - | 239 W/m² | - |
| 1787781807 | 31.67° C | 52% | 1014.2 hPa | 0 mm | - | 255 W/m² | - |
| 1787781504 | 32.22° C | 53% | 1014.2 hPa | 0 mm | - | 273 W/m² | - |
| 1787781204 | 31.67° C | 54% | 1014.3 hPa | 0 mm | - | 282 W/m² | - |
| 1787780902 | 32.22° C | 53% | 1014.2 hPa | 0 mm | - | 298 W/m² | - |
| 1787780597 | 32.22° C | 51% | 1014.4 hPa | 0 mm | - | 146 W/m² | - |
| 1787780292 | 31.67° C | 52% | 1014.2 hPa | 0 mm | - | 328 W/m² | - |
| 1787779988 | 32.22° C | 54% | 1014.4 hPa | 0 mm | - | 343 W/m² | - |
| 1787779683 | 31.67° C | 53% | 1014.4 hPa | 0 mm | - | 358 W/m² | - |
| 1787779382 | 31.67° C | 55% | 1014.6 hPa | 0 mm | - | 391 W/m² | - |
| 1787779077 | 31.11° C | 54% | 1014.6 hPa | 0 mm | - | 399 W/m² | - |
| 1787778772 | 30° C | 59% | 1014.5 hPa | 0 mm | - | 421 W/m² | - |
| 1787778468 | 30° C | 60% | 1014.7 hPa | 0 mm | - | 454 W/m² | - |
| 1787778164 | 30° C | 58% | 1014.6 hPa | 0 mm | - | 169 W/m² | - |
| 1787777863 | 31.11° C | 55% | 1014.7 hPa | 0 mm | - | 141 W/m² | - |
| 1787777560 | 31.67° C | 55% | 1014.8 hPa | 0 mm | - | 167 W/m² | - |
| 1787777260 | 31.11° C | 57% | 1014.9 hPa | 0 mm | - | 508 W/m² | - |
| 1787776959 | 31.11° C | 55% | 1015 hPa | 0 mm | - | 555 W/m² | - |
| 1787776653 | 31.67° C | 52% | 1015 hPa | 0 mm | - | 167 W/m² | - |
| 1787776352 | 32.22° C | 52% | 1015.1 hPa | 0 mm | - | 220 W/m² | - |
| 1787776050 | 31.67° C | 53% | 1015 hPa | 0 mm | - | 563 W/m² | - |
| 1787775745 | 31.11° C | 54% | 1015.3 hPa | 0 mm | - | 639 W/m² | - |
* Rain latest hour (hover to see other rain measurements)
** Current wind speed in m/s (hover to see current wind gust speed)